Time;durP1;ratioP1;P1;durP2;ratioP2;P2;SDS_P1;SDS_P2;PMS_P1;PMS_P2;Temp;Humidity;BMP_temperature;BMP_pressure;BME280_temperature;BME280_humidity;BME280_pressure;Samples;Min_cycle;Max_cycle;Signal;HPM_P1;HPM_P2
2023/07/13 00:01:52;;;;;;;1.30;1.00;;;;;;;20.30;47.31;100275.16;110678;1212;138827;-62
2023/07/13 00:04:20;;;;;;;3.40;1.70;;;;;;;20.26;47.36;100274.01;110786;1212;100387;-61
2023/07/13 00:06:46;;;;;;;3.70;1.30;;;;;;;20.22;47.42;100273.62;110812;1212;98989;-61
2023/07/13 00:09:14;;;;;;;4.50;1.70;;;;;;;20.15;47.53;100272.81;110672;1212;140049;-62
2023/07/13 00:11:40;;;;;;;4.70;1.40;;;;;;;20.11;47.68;100276.81;110732;1209;99027;-62
2023/07/13 00:14:06;;;;;;;1.10;0.90;;;;;;;20.09;47.78;100279.38;110703;1210;140287;-62
2023/07/13 00:16:34;;;;;;;1.40;1.20;;;;;;;20.05;47.82;100283.94;110875;1212;99104;-62
2023/07/13 00:19:00;;;;;;;1.20;1.10;;;;;;;20.01;47.93;100292.05;110768;1209;138779;-60
2023/07/13 00:21:25;;;;;;;4.30;1.40;;;;;;;19.98;47.98;100300.48;110838;1209;99051;-61
2023/07/13 00:23:51;;;;;;;3.00;1.30;;;;;;;19.96;48.14;100313.21;110836;1208;98898;-60
2023/07/13 00:26:17;;;;;;;2.30;1.40;;;;;;;19.93;48.31;100317.98;110643;1210;140197;-61
2023/07/13 00:28:42;;;;;;;5.80;1.80;;;;;;;19.93;48.35;100326.68;110757;1209;97863;-60
2023/07/13 00:31:10;;;;;;;3.00;1.10;;;;;;;19.96;48.46;100333.29;110718;1209;138437;-60
2023/07/13 00:33:36;;;;;;;2.50;1.30;;;;;;;19.98;48.49;100324.21;110779;1212;104433;-61
2023/07/13 00:36:01;;;;;;;5.10;1.50;;;;;;;20.01;48.53;100314.35;110771;1212;99058;-61
2023/07/13 00:38:26;;;;;;;3.90;1.30;;;;;;;20.01;48.67;100308.02;110709;1209;138656;-60
2023/07/13 00:40:52;;;;;;;5.40;1.50;;;;;;;20.00;48.57;100307.17;110754;1209;97376;-60
2023/07/13 00:43:20;;;;;;;1.30;1.20;;;;;;;20.00;48.53;100301.20;110705;1209;139770;-60
2023/07/13 00:45:45;;;;;;;1.90;1.30;;;;;;;20.01;48.55;100296.23;110739;1212;99047;-60
2023/07/13 00:48:14;;;;;;;3.70;1.50;;;;;;;20.02;48.66;100294.66;110765;1209;98972;-60
2023/07/13 00:50:40;;;;;;;1.80;1.40;;;;;;;20.02;48.73;100291.42;110814;1212;139654;-60
2023/07/13 00:53:07;;;;;;;2.70;1.10;;;;;;;20.03;48.72;100287.88;110942;1209;97799;-60
2023/07/13 00:55:33;;;;;;;2.50;1.20;;;;;;;20.09;48.77;100287.71;110707;1212;140336;-60
2023/07/13 00:57:59;;;;;;;3.30;1.10;;;;;;;20.15;48.76;100286.65;110880;1212;97804;-60
2023/07/13 01:00:25;;;;;;;1.20;1.10;;;;;;;20.19;48.77;100291.16;110813;1212;99044;-60
2023/07/13 01:02:51;;;;;;;1.60;1.10;;;;;;;20.22;48.80;100288.05;110622;1209;139029;-60
2023/07/13 01:05:20;;;;;;;2.80;1.30;;;;;;;20.23;48.89;100287.05;110750;1209;99047;-61
2023/07/13 01:07:48;;;;;;;5.50;1.20;;;;;;;20.22;48.89;100290.38;110597;1214;140216;-60
2023/07/13 01:10:14;;;;;;;2.00;1.20;;;;;;;20.20;48.86;100293.86;110823;1212;98956;-60
2023/07/13 01:12:40;;;;;;;5.60;1.40;;;;;;;20.17;48.87;100300.80;110860;1213;99000;-60
2023/07/13 01:15:37;;;;;;;1.50;1.00;;;;;;;20.14;48.99;100299.64;110781;1212;139455;-60
2023/07/13 01:18:06;;;;;;;2.20;1.40;;;;;;;20.11;49.05;100300.58;110803;1212;99012;-60
2023/07/13 01:20:36;;;;;;;3.20;1.30;;;;;;;20.08;49.15;100303.91;110769;1209;138950;-60
2023/07/13 01:23:06;;;;;;;1.80;1.00;;;;;;;20.07;49.14;100303.67;110744;1212;98930;-61
2023/07/13 01:25:31;;;;;;;2.50;1.20;;;;;;;20.05;49.27;100302.98;110721;1208;140517;-60
2023/07/13 01:27:57;;;;;;;5.90;1.30;;;;;;;20.03;49.20;100306.04;110743;1212;99899;-60
2023/07/13 01:30:22;;;;;;;2.20;1.20;;;;;;;20.00;49.33;100310.11;110840;1209;99379;-60
2023/07/13 01:32:48;;;;;;;2.40;1.40;;;;;;;19.94;49.41;100315.72;110587;1210;139645;-60
2023/07/13 01:35:13;;;;;;;4.10;1.30;;;;;;;19.86;49.50;100308.60;111021;1209;98905;-61
2023/07/13 01:37:38;;;;;;;2.50;1.00;;;;;;;19.83;49.67;100309.59;110633;1212;139776;-61
2023/07/13 01:40:04;;;;;;;3.20;1.30;;;;;;;19.84;49.84;100306.27;110742;1212;97775;-60
2023/07/13 01:42:30;;;;;;;3.00;1.50;;;;;;;19.83;49.81;100308.88;110997;1208;99041;-60
2023/07/13 01:44:55;;;;;;;4.80;1.50;;;;;;;19.82;49.77;100311.73;110656;1212;140196;-60
2023/07/13 01:47:22;;;;;;;7.50;1.60;;;;;;;19.78;49.78;100310.02;110806;1210;98962;-60
2023/07/13 01:49:48;;;;;;;4.10;1.20;;;;;;;19.74;49.79;100303.98;110692;1208;138781;-60
2023/07/13 01:52:13;;;;;;;2.00;1.30;;;;;;;19.72;49.89;100303.25;110847;1208;99065;-60
2023/07/13 01:54:38;;;;;;;7.50;1.50;;;;;;;19.71;50.13;100301.40;110692;1220;99063;-60
2023/07/13 01:57:04;;;;;;;1.50;1.00;;;;;;;19.66;50.15;100296.80;110756;1209;138830;-60
2023/07/13 01:59:29;;;;;;;2.70;1.10;;;;;;;19.62;50.24;100292.76;110794;1209;99028;-60
2023/07/13 02:01:54;;;;;;;1.60;1.10;;;;;;;19.57;50.34;100289.89;110692;1210;138359;-60
2023/07/13 02:04:20;;;;;;;2.80;1.30;;;;;;;19.55;50.31;100288.28;110832;1209;98936;-61
2023/07/13 02:06:45;;;;;;;1.90;1.40;;;;;;;19.51;50.43;100283.36;110720;1209;99060;-61
2023/07/13 02:09:10;;;;;;;3.30;1.50;;;;;;;19.49;50.52;100284.08;110723;1208;138750;-60
2023/07/13 02:11:35;;;;;;;2.60;1.60;;;;;;;19.42;50.69;100283.45;110717;1212;99156;-60
2023/07/13 02:14:02;;;;;;;2.40;1.40;;;;;;;19.34;51.01;100285.00;110721;1209;138739;-60
2023/07/13 02:16:28;;;;;;;5.50;1.50;;;;;;;19.33;51.20;100284.38;110814;1212;99035;-60
2023/07/13 02:18:55;;;;;;;1.90;1.50;;;;;;;19.32;51.14;100290.05;110647;1209;138313;-60
2023/07/13 02:21:21;;;;;;;9.30;2.00;;;;;;;19.32;51.29;100296.42;110791;1209;98919;-60
2023/07/13 02:23:46;;;;;;;1.90;1.50;;;;;;;19.32;51.34;100294.94;110824;1213;99114;-61
2023/07/13 02:26:13;;;;;;;1.70;1.40;;;;;;;19.28;51.50;100298.19;110676;1209;138114;-60
2023/07/13 02:28:38;;;;;;;2.50;1.80;;;;;;;19.23;51.64;100298.06;110653;1208;97800;-61
2023/07/13 02:31:09;;;;;;;5.70;2.20;;;;;;;19.20;51.88;100298.52;110664;1212;139204;-60
2023/07/13 02:33:34;;;;;;;1.80;1.40;;;;;;;19.14;51.99;100301.75;110760;1215;99064;-60
2023/07/13 02:35:59;;;;;;;2.40;1.50;;;;;;;19.06;52.46;100299.85;110803;1209;99044;-61
2023/07/13 02:38:25;;;;;;;3.20;1.80;;;;;;;19.03;52.38;100296.89;110751;1212;138536;-60
2023/07/13 02:40:51;;;;;;;6.20;1.90;;;;;;;19.01;52.60;100305.92;110836;1209;99489;-60
2023/07/13 02:43:16;;;;;;;4.10;1.80;;;;;;;18.98;52.74;100308.36;110769;1212;140858;-60
2023/07/13 02:45:45;;;;;;;8.10;2.10;;;;;;;18.94;52.90;100311.38;110677;1212;99029;-61
2023/07/13 02:48:10;;;;;;;4.50;1.90;;;;;;;18.90;53.07;100312.66;110772;1212;104035;-60
2023/07/13 02:50:35;;;;;;;5.80;1.80;;;;;;;18.86;53.38;100313.38;110598;1212;138701;-60
2023/07/13 02:53:01;;;;;;;2.60;2.10;;;;;;;18.84;53.77;100314.10;110826;1209;97934;-60
2023/07/13 02:55:26;;;;;;;5.70;2.30;;;;;;;18.85;53.95;100320.00;110650;1212;139384;-60
2023/07/13 02:57:51;;;;;;;5.30;2.10;;;;;;;18.83;54.00;100323.73;110823;1210;98940;-60
2023/07/13 03:00:17;;;;;;;2.90;1.90;;;;;;;18.82;54.22;100321.83;110724;1208;99158;-60
2023/07/13 03:02:42;;;;;;;2.50;1.80;;;;;;;18.81;54.47;100325.54;110588;1208;139420;-60
2023/07/13 03:05:12;;;;;;;8.80;2.20;;;;;;;18.79;54.68;100322.97;110842;1212;99000;-60
2023/07/13 03:07:37;;;;;;;5.90;2.40;;;;;;;18.76;54.95;100313.98;110705;1209;140675;-60
2023/07/13 03:10:04;;;;;;;3.10;2.20;;;;;;;18.75;55.45;100307.50;110718;1209;99111;-60
2023/07/13 03:12:29;;;;;;;9.50;2.70;;;;;;;18.74;55.73;100311.98;110828;1208;98963;-60
2023/07/13 03:14:54;;;;;;;5.10;2.70;;;;;;;18.75;56.03;100314.61;110639;1212;138507;-60
2023/07/13 03:17:20;;;;;;;9.50;3.20;;;;;;;18.76;56.09;100307.83;110682;1209;97901;-60
2023/07/13 03:19:49;;;;;;;6.70;2.80;;;;;;;18.77;56.06;100302.91;110640;1213;139205;-60
2023/07/13 03:22:15;;;;;;;5.50;3.10;;;;;;;18.76;56.32;100304.98;110844;1209;99038;-60
2023/07/13 03:24:40;;;;;;;4.30;2.90;;;;;;;18.77;56.43;100314.48;110794;1208;99574;-60
2023/07/13 03:27:06;;;;;;;5.50;2.90;;;;;;;18.76;56.87;100318.16;110743;1208;139408;-60
2023/07/13 03:29:31;;;;;;;3.90;2.70;;;;;;;18.76;56.93;100313.23;110711;1212;98946;-60
2023/07/13 03:31:57;;;;;;;6.00;3.00;;;;;;;18.78;57.32;100309.88;110582;1209;139625;-60
2023/07/13 03:34:22;;;;;;;3.20;2.60;;;;;;;18.81;57.84;100311.04;110726;1209;99053;-60
2023/07/13 03:36:47;;;;;;;4.40;3.10;;;;;;;18.85;57.75;100308.35;110650;1213;99134;-60
2023/07/13 03:39:12;;;;;;;4.30;3.30;;;;;;;18.89;57.92;100301.72;110707;1210;139234;-60
2023/07/13 03:41:38;;;;;;;4.50;3.40;;;;;;;18.90;58.00;100301.25;110681;1212;99410;-60
2023/07/13 03:44:03;;;;;;;3.70;2.90;;;;;;;18.90;58.42;100298.73;110672;1212;140013;-60
2023/07/13 03:46:29;;;;;;;4.80;3.10;;;;;;;18.92;58.73;100299.41;110675;1211;99023;-60
2023/07/13 03:48:54;;;;;;;5.90;3.60;;;;;;;18.95;58.78;100308.19;110603;1212;140676;-61
2023/07/13 03:51:20;;;;;;;7.50;3.30;;;;;;;18.97;59.12;100324.56;110828;1209;98876;-60
2023/07/13 03:53:47;;;;;;;7.60;3.70;;;;;;;19.00;59.40;100333.14;110716;1209;99045;-61
2023/07/13 03:56:15;;;;;;;6.70;3.50;;;;;;;19.03;59.63;100333.66;110706;1212;138952;-61
2023/07/13 03:58:42;;;;;;;10.00;3.80;;;;;;;19.04;59.71;100340.57;110890;1208;98910;-61
2023/07/13 04:01:10;;;;;;;5.30;3.50;;;;;;;19.05;59.72;100343.63;110743;1212;140491;-61
2023/07/13 04:03:36;;;;;;;4.40;3.40;;;;;;;19.02;59.98;100345.83;110686;1209;98958;-61
2023/07/13 04:06:04;;;;;;;5.40;3.50;;;;;;;19.01;60.28;100345.21;110761;1212;99001;-62
2023/07/13 04:08:32;;;;;;;5.20;3.60;;;;;;;19.03;60.53;100352.30;110680;1212;139241;-62
2023/07/13 04:10:58;;;;;;;4.30;3.40;;;;;;;19.05;60.69;100354.66;110823;1212;99046;-61
2023/07/13 04:13:24;;;;;;;6.70;3.60;;;;;;;19.05;60.84;100353.94;110746;1209;139643;-62
2023/07/13 04:15:51;;;;;;;5.60;3.80;;;;;;;19.05;60.94;100352.84;110948;1208;99050;-61
2023/07/13 04:18:16;;;;;;;9.20;4.30;;;;;;;19.04;60.99;100346.56;110771;1209;98946;-61
2023/07/13 04:20:42;;;;;;;5.90;3.20;;;;;;;19.03;61.44;100336.91;110591;1212;139353;-61
2023/07/13 04:23:07;;;;;;;5.40;3.90;;;;;;;19.03;61.52;100337.05;110810;1208;99130;-62
2023/07/13 04:25:32;;;;;;;8.60;4.10;;;;;;;19.05;61.76;100342.69;110633;1209;139028;-61
2023/07/13 04:27:57;;;;;;;6.30;3.90;;;;;;;19.06;62.00;100345.55;110807;1208;97824;-62
2023/07/13 04:30:23;;;;;;;9.50;4.60;;;;;;;19.07;62.34;100350.85;110758;1212;99069;-61
2023/07/13 04:32:51;;;;;;;7.30;4.10;;;;;;;19.10;62.55;100359.31;110695;1209;138873;-61
2023/07/13 04:35:20;;;;;;;6.20;3.50;;;;;;;19.07;62.49;100361.40;110831;1209;99089;-61
2023/07/13 04:37:47;;;;;;;6.00;4.00;;;;;;;18.99;62.93;100358.78;110618;1208;140122;-61
2023/07/13 04:40:12;;;;;;;4.90;3.40;;;;;;;18.95;63.31;100355.30;110721;1212;99056;-62
2023/07/13 04:42:38;;;;;;;7.30;3.60;;;;;;;18.99;63.46;100354.43;110737;1209;99665;-62
2023/07/13 04:45:06;;;;;;;7.90;3.90;;;;;;;19.05;63.80;100363.70;110703;1208;140700;-61
2023/07/13 04:47:31;;;;;;;8.50;4.50;;;;;;;19.13;64.06;100370.48;110973;1209;99011;-61
2023/07/13 04:49:57;;;;;;;7.00;4.10;;;;;;;19.19;64.10;100367.64;110670;1212;138603;-62
2023/07/13 04:52:23;;;;;;;10.50;4.70;;;;;;;19.21;64.39;100363.42;110893;1208;98982;-62
2023/07/13 04:54:49;;;;;;;9.80;3.80;;;;;;;19.25;64.42;100354.45;110745;1209;99222;-61
2023/07/13 04:57:14;;;;;;;5.90;4.00;;;;;;;19.27;64.40;100358.10;110784;1212;139777;-62
2023/07/13 04:59:40;;;;;;;11.40;4.30;;;;;;;19.29;64.68;100361.30;110765;1212;98941;-61
2023/07/13 05:02:05;;;;;;;9.50;4.20;;;;;;;19.33;64.85;100363.88;110621;1209;139241;-62
2023/07/13 05:04:31;;;;;;;10.50;4.10;;;;;;;19.38;64.85;100363.10;110815;1209;99007;-61
2023/07/13 05:06:56;;;;;;;10.10;4.00;;;;;;;19.38;64.77;100363.98;110637;1209;140129;-61
2023/07/13 05:09:22;;;;;;;8.70;4.90;;;;;;;19.38;65.14;100370.91;110758;1212;99053;-62
2023/07/13 05:11:47;;;;;;;12.20;4.30;;;;;;;19.43;65.22;100381.89;110781;1208;99063;-62
2023/07/13 05:14:12;;;;;;;11.50;4.80;;;;;;;19.46;65.33;100383.42;110604;1209;139005;-59
2023/07/13 05:16:37;;;;;;;7.10;4.10;;;;;;;19.47;65.31;100383.58;110807;1212;98969;-60
2023/07/13 05:19:03;;;;;;;8.80;4.50;;;;;;;19.45;65.41;100380.98;110655;1208;140738;-62
2023/07/13 05:21:29;;;;;;;5.30;4.10;;;;;;;19.43;65.60;100383.84;110659;1212;99057;-62
2023/07/13 05:23:54;;;;;;;7.70;4.40;;;;;;;19.42;65.77;100381.11;110976;1208;96675;-59
2023/07/13 05:26:20;;;;;;;7.80;5.20;;;;;;;19.47;66.02;100385.36;110655;1212;138797;-62
2023/07/13 05:28:46;;;;;;;6.70;4.40;;;;;;;19.52;66.01;100387.68;110716;1208;100560;-62
2023/07/13 05:31:11;;;;;;;15.90;6.50;;;;;;;19.57;66.17;100390.73;110619;1208;140486;-59
2023/07/13 05:33:36;;;;;;;6.80;4.40;;;;;;;19.58;66.05;100394.61;110650;1212;99363;-62
2023/07/13 05:36:02;;;;;;;6.70;4.70;;;;;;;19.56;66.04;100399.48;110774;1209;98928;-62
2023/07/13 05:38:28;;;;;;;9.50;4.50;;;;;;;19.52;66.06;100402.73;110794;1209;140239;-62
2023/07/13 05:40:55;;;;;;;9.90;4.90;;;;;;;19.50;66.43;100411.23;110935;1209;98934;-62
2023/07/13 05:43:22;;;;;;;9.30;4.20;;;;;;;19.47;66.35;100414.73;110632;1211;138906;-62
2023/07/13 05:45:48;;;;;;;9.60;4.60;;;;;;;19.40;66.54;100416.91;110735;1209;98973;-62
2023/07/13 05:48:14;;;;;;;9.00;5.00;;;;;;;19.37;66.91;100421.56;110943;1209;99102;-60
2023/07/13 05:50:40;;;;;;;8.20;4.70;;;;;;;19.41;67.12;100430.25;110572;1209;140631;-62
2023/07/13 05:53:05;;;;;;;9.10;5.10;;;;;;;19.43;67.07;100435.48;110677;1212;102125;-62
2023/07/13 05:55:30;;;;;;;7.30;4.70;;;;;;;19.43;67.13;100437.31;110518;1209;139790;-62
2023/07/13 05:57:57;;;;;;;14.50;4.80;;;;;;;19.46;67.28;100435.84;110592;1212;99050;-61
2023/07/13 06:00:23;;;;;;;12.80;5.30;;;;;;;19.50;67.35;100437.89;110704;1209;99536;-60
2023/07/13 06:02:48;;;;;;;9.90;5.30;;;;;;;19.48;67.24;100435.32;110573;1213;139567;-60
2023/07/13 06:05:14;;;;;;;13.40;5.10;;;;;;;19.49;67.40;100437.23;110659;1212;98965;-60
2023/07/13 06:07:39;;;;;;;10.70;4.90;;;;;;;19.51;67.32;100437.25;110448;1212;139870;-59
2023/07/13 06:10:05;;;;;;;10.50;5.20;;;;;;;19.54;67.33;100443.39;110735;1209;99091;-60
2023/07/13 06:12:30;;;;;;;11.30;4.60;;;;;;;19.54;67.35;100448.20;110703;1212;99196;-60
2023/07/13 06:14:55;;;;;;;14.90;5.40;;;;;;;19.53;67.36;100451.92;110579;1208;139667;-59
2023/07/13 06:17:21;;;;;;;16.50;5.70;;;;;;;19.54;67.37;100456.94;110627;1212;99143;-59
2023/07/13 06:19:46;;;;;;;14.90;5.30;;;;;;;19.52;67.48;100457.81;110565;1208;138881;-62
2023/07/13 06:22:11;;;;;;;10.10;4.90;;;;;;;19.53;67.57;100464.99;110770;1213;99416;-62
2023/07/13 06:24:36;;;;;;;12.00;5.00;;;;;;;19.54;67.57;100468.77;110732;1212;99009;-63
2023/07/13 06:27:02;;;;;;;20.70;5.40;;;;;;;19.57;67.61;100471.92;110652;1212;138949;-63
2023/07/13 06:29:27;;;;;;;12.40;5.20;;;;;;;19.54;67.61;100473.09;110751;1209;99050;-62
2023/07/13 06:31:52;;;;;;;8.50;4.80;;;;;;;19.47;67.77;100473.23;110636;1212;140309;-62
2023/07/13 06:34:17;;;;;;;11.10;4.50;;;;;;;19.44;67.96;100472.91;110818;1209;99544;-62
2023/07/13 06:36:43;;;;;;;14.40;5.00;;;;;;;19.48;68.03;100474.10;110752;1209;99046;-60
2023/07/13 06:39:09;;;;;;;9.30;4.60;;;;;;;19.53;68.12;100474.58;110805;1208;138930;-60
2023/07/13 06:41:34;;;;;;;6.10;4.30;;;;;;;19.58;68.12;100479.09;110723;1212;99055;-60
2023/07/13 06:43:59;;;;;;;14.70;4.90;;;;;;;19.60;68.23;100485.23;110630;1212;139337;-61
2023/07/13 06:46:25;;;;;;;20.50;5.60;;;;;;;19.68;68.21;100485.12;110739;1209;99203;-60
2023/07/13 06:48:50;;;;;;;15.30;4.80;;;;;;;19.76;68.35;100491.70;110673;1213;99022;-60
2023/07/13 06:51:16;;;;;;;11.00;5.00;;;;;;;19.85;68.33;100490.82;110644;1209;140387;-61
2023/07/13 06:53:43;;;;;;;12.70;5.10;;;;;;;19.92;68.31;100487.61;110731;1208;98993;-60
2023/07/13 06:56:10;;;;;;;13.80;5.20;;;;;;;19.97;68.32;100484.81;110700;1212;139089;-60
2023/07/13 06:58:36;;;;;;;17.60;5.80;;;;;;;20.02;68.28;100482.59;110856;1212;98999;-61
2023/07/13 07:01:02;;;;;;;13.70;5.50;;;;;;;20.06;68.14;100481.73;110644;1212;141000;-60
2023/07/13 07:03:28;;;;;;;11.90;5.60;;;;;;;20.06;68.22;100478.77;110318;1212;99050;-61
2023/07/13 07:05:53;;;;;;;14.00;5.20;;;;;;;20.14;68.22;100481.04;110468;1208;98974;-61
2023/07/13 07:08:18;;;;;;;17.30;5.70;;;;;;;20.20;68.17;100482.30;110672;1208;140770;-61
2023/07/13 07:10:44;;;;;;;22.40;6.80;;;;;;;20.27;68.16;100486.94;110629;1208;99499;-60
2023/07/13 07:13:10;;;;;;;22.60;5.40;;;;;;;20.33;68.12;100489.50;110679;1212;139116;-61
2023/07/13 07:15:35;;;;;;;16.80;5.60;;;;;;;20.40;68.05;100487.66;110850;1212;100436;-61
2023/07/13 07:18:01;;;;;;;15.40;5.80;;;;;;;20.42;68.01;100487.53;110784;1209;99172;-60
2023/07/13 07:20:26;;;;;;;9.40;4.70;;;;;;;20.42;68.00;100483.15;110610;1213;139393;-60
2023/07/13 07:22:52;;;;;;;9.90;5.50;;;;;;;20.42;67.91;100480.41;110751;1212;98918;-60
2023/07/13 07:25:17;;;;;;;14.90;5.60;;;;;;;20.49;67.96;100482.96;110581;1214;141290;-61
2023/07/13 07:27:43;;;;;;;16.30;6.30;;;;;;;20.55;67.89;100486.52;110642;1208;99846;-61
2023/07/13 07:30:09;;;;;;;15.10;5.30;;;;;;;20.56;67.93;100485.73;110927;1212;99015;-60
2023/07/13 07:32:34;;;;;;;12.10;5.40;;;;;;;20.60;67.93;100477.27;110842;1209;138990;-60
2023/07/13 07:35:00;;;;;;;16.60;5.90;;;;;;;20.63;67.86;100477.08;110825;1212;99115;-61
2023/07/13 07:37:25;;;;;;;15.10;5.00;;;;;;;20.71;67.76;100476.96;110620;1212;139156;-61
2023/07/13 07:39:50;;;;;;;8.70;4.80;;;;;;;20.85;67.71;100478.45;110658;1208;98956;-61
2023/07/13 07:42:16;;;;;;;11.50;4.40;;;;;;;20.94;67.58;100479.56;110820;1214;100529;-60
2023/07/13 07:44:41;;;;;;;8.70;4.20;;;;;;;21.01;67.49;100482.27;110603;1209;139185;-60
2023/07/13 07:47:08;;;;;;;8.30;3.60;;;;;;;21.13;67.25;100480.13;110829;1209;99051;-60
2023/07/13 07:49:34;;;;;;;9.90;4.00;;;;;;;21.22;67.02;100475.27;110534;1208;140206;-60
2023/07/13 07:52:00;;;;;;;8.60;4.10;;;;;;;21.23;66.79;100475.20;110694;1208;98916;-60
2023/07/13 07:54:25;;;;;;;10.50;5.20;;;;;;;21.24;66.51;100475.11;110794;1212;99043;-61
2023/07/13 07:56:50;;;;;;;6.20;3.20;;;;;;;21.35;66.42;100476.49;110597;1208;138923;-61
2023/07/13 07:59:16;;;;;;;7.40;3.20;;;;;;;21.47;66.23;100478.16;110735;1208;99069;-60
2023/07/13 08:01:41;;;;;;;10.90;3.90;;;;;;;21.60;66.08;100481.08;110639;1208;138107;-62
2023/07/13 08:04:06;;;;;;;6.10;3.30;;;;;;;21.72;65.76;100484.66;110728;1208;99751;-61
2023/07/13 08:06:33;;;;;;;8.80;3.30;;;;;;;21.84;65.58;100485.45;110839;1212;99059;-61
2023/07/13 08:08:59;;;;;;;6.60;3.10;;;;;;;21.93;65.15;100492.92;110606;1212;138854;-60
2023/07/13 08:11:25;;;;;;;8.00;3.40;;;;;;;22.03;64.91;100489.61;110738;1208;98907;-61
2023/07/13 08:13:51;;;;;;;5.50;3.30;;;;;;;22.08;64.63;100484.77;110620;1208;138367;-60
2023/07/13 08:16:16;;;;;;;8.50;3.40;;;;;;;22.10;64.30;100484.27;110751;1209;104340;-61
2023/07/13 08:18:41;;;;;;;5.60;2.60;;;;;;;22.10;63.85;100485.31;110677;1210;98938;-60
2023/07/13 08:21:08;;;;;;;5.90;2.80;;;;;;;22.10;63.82;100485.38;110663;1208;139364;-60
2023/07/13 08:23:34;;;;;;;4.30;3.10;;;;;;;22.10;63.46;100484.83;110760;1212;99006;-60
2023/07/13 08:26:01;;;;;;;7.90;3.70;;;;;;;22.14;63.19;100484.59;110630;1208;139221;-61
2023/07/13 08:28:28;;;;;;;8.00;3.00;;;;;;;22.24;62.98;100487.84;110771;1212;100992;-60
2023/07/13 08:30:53;;;;;;;7.60;3.10;;;;;;;22.32;62.72;100486.67;110565;1208;140183;-61
2023/07/13 08:33:20;;;;;;;11.30;3.60;;;;;;;22.41;62.64;100487.29;110769;1208;98953;-61
2023/07/13 08:35:46;;;;;;;11.30;4.20;;;;;;;22.52;62.48;100489.14;110682;1208;99022;-61
2023/07/13 08:38:12;;;;;;;8.40;3.60;;;;;;;22.67;62.36;100486.09;110686;1211;140848;-61
2023/07/13 08:40:39;;;;;;;6.00;3.30;;;;;;;22.84;62.28;100489.20;110812;1210;98965;-61
2023/07/13 08:43:04;;;;;;;7.90;3.80;;;;;;;22.94;61.99;100494.86;110818;1208;140050;-61
2023/07/13 08:45:37;;;;;;;6.60;3.80;;;;;;;23.00;61.66;100494.88;110743;1209;99041;-61
2023/07/13 08:48:11;;;;;;;9.20;4.00;;;;;;;23.10;61.50;100494.48;110783;1208;98890;-61
2023/07/13 08:50:58;;;;;;;10.30;3.80;;;;;;;23.22;61.36;100496.52;110578;1210;138957;-61
2023/07/13 08:53:30;;;;;;;13.30;4.30;;;;;;;23.35;61.05;100496.41;110771;1213;99044;-61
2023/07/13 08:55:59;;;;;;;11.70;3.70;;;;;;;23.40;60.86;100494.73;110584;1212;140368;-61
2023/07/13 08:58:28;;;;;;;6.80;3.10;;;;;;;23.39;60.60;100487.57;110801;1208;104124;-62
2023/07/13 09:01:10;;;;;;;8.60;3.30;;;;;;;23.37;60.33;100485.23;110605;1212;140554;-62
2023/07/13 09:03:44;;;;;;;9.40;3.50;;;;;;;23.40;60.41;100482.65;110714;1208;99752;-60
2023/07/13 09:06:14;;;;;;;9.60;3.40;;;;;;;23.43;59.99;100484.23;110744;1212;98352;-60
2023/07/13 09:08:46;;;;;;;11.10;4.10;;;;;;;23.50;60.04;100483.67;110591;1212;140732;-60
2023/07/13 09:11:29;;;;;;;6.40;3.10;;;;;;;23.61;59.94;100488.63;110723;1211;104707;-60
2023/07/13 09:14:06;;;;;;;6.70;3.80;;;;;;;23.72;59.67;100490.96;110522;1208;139800;-60
2023/07/13 09:16:33;;;;;;;6.60;3.80;;;;;;;23.77;59.45;100489.00;110703;1212;99595;-59
2023/07/13 09:19:05;;;;;;;5.50;3.30;;;;;;;23.81;59.36;100486.04;110492;1210;138687;-60
2023/07/13 09:21:39;;;;;;;9.10;4.10;;;;;;;23.85;59.09;100488.36;110933;1208;98942;-60
2023/07/13 09:24:30;;;;;;;6.40;3.50;;;;;;;23.95;59.00;100489.77;110729;1212;106738;-60
2023/07/13 09:26:57;;;;;;;;;;;;;;;24.05;58.86;100494.17;110566;1209;139804;-60
2023/07/13 09:29:33;;;;;;;11.80;3.70;;;;;;;23.99;58.56;100489.16;110770;1208;99506;-60
2023/07/13 09:32:04;;;;;;;7.50;3.70;;;;;;;24.00;58.16;100489.81;110566;1208;140220;-60
2023/07/13 09:34:30;;;;;;;9.00;3.70;;;;;;;24.06;58.32;100485.17;110774;1212;98916;-60
2023/07/13 09:36:56;;;;;;;10.30;4.30;;;;;;;24.13;58.14;100484.05;110568;1212;139617;-61
2023/07/13 09:39:29;;;;;;;5.80;3.40;;;;;;;24.15;57.99;100479.48;110984;1208;98952;-62
2023/07/13 09:42:15;;;;;;;7.00;3.80;;;;;;;24.14;58.00;100481.76;110755;1212;99320;-60
2023/07/13 09:44:55;;;;;;;11.00;3.80;;;;;;;24.13;57.77;100484.05;110604;1212;139025;-61
2023/07/13 09:47:29;;;;;;;8.30;4.00;;;;;;;24.13;57.92;100489.35;110813;1209;99115;-62
2023/07/13 09:50:06;;;;;;;12.10;3.80;;;;;;;24.08;57.72;100491.52;110623;1211;139003;-60
2023/07/13 09:52:42;;;;;;;9.40;4.00;;;;;;;23.96;57.54;100494.19;110871;1213;99007;-61
2023/07/13 09:55:31;;;;;;;9.00;4.20;;;;;;;23.89;57.50;100488.13;110766;1212;140348;-60
2023/07/13 09:57:57;;;;;;;9.70;3.70;;;;;;;23.96;57.44;100491.80;110717;1213;98959;-61
2023/07/13 10:00:29;;;;;;;10.30;4.10;;;;;;;24.01;57.40;100492.77;110750;1212;99074;-61
2023/07/13 10:03:25;;;;;;;19.10;7.80;;;;;;;24.10;57.38;100490.63;110611;1212;138958;-61
2023/07/13 10:05:52;;;;;;;10.20;4.20;;;;;;;24.09;57.03;100495.96;110473;1213;99483;-61
2023/07/13 10:08:24;;;;;;;9.00;4.20;;;;;;;24.00;56.62;100495.44;110524;1208;139538;-61
2023/07/13 10:10:55;;;;;;;10.60;3.30;;;;;;;24.00;56.78;100491.07;110350;1213;100557;-60
2023/07/13 10:13:27;;;;;;;9.80;3.60;;;;;;;24.17;56.88;100488.08;110782;1213;140975;-61
2023/07/13 10:15:53;;;;;;;6.30;2.80;;;;;;;24.41;56.89;100487.36;110464;1210;104424;-60
2023/07/13 10:18:20;;;;;;;7.70;3.20;;;;;;;24.62;56.43;100484.67;110947;1209;98958;-61
2023/07/13 10:20:46;;;;;;;7.50;2.70;;;;;;;24.76;56.05;100487.30;110370;1208;139875;-60
2023/07/13 10:23:21;;;;;;;7.50;2.80;;;;;;;24.88;55.90;100489.16;110831;1212;99145;-60
2023/07/13 10:25:48;;;;;;;8.30;2.70;;;;;;;24.96;55.40;100493.84;110639;1210;138083;-61
2023/07/13 10:28:32;;;;;;;6.30;2.40;;;;;;;25.00;55.24;100494.88;110831;1208;99115;-61
2023/07/13 10:31:00;;;;;;;7.90;2.60;;;;;;;24.99;54.76;100499.39;110931;1213;138802;-61
2023/07/13 10:33:26;;;;;;;6.00;2.90;;;;;;;24.91;54.52;100503.61;110851;1213;99072;-61
2023/07/13 10:36:04;;;;;;;4.40;2.80;;;;;;;24.80;54.23;100503.58;110917;1208;99052;-61
2023/07/13 10:38:29;;;;;;;8.00;3.60;;;;;;;24.75;54.04;100504.09;110781;1212;138856;-60
2023/07/13 10:41:05;;;;;;;6.80;2.60;;;;;;;24.74;53.94;100497.95;110834;1208;98922;-61
2023/07/13 10:43:42;;;;;;;8.20;3.30;;;;;;;24.69;53.65;100495.61;110754;1208;138919;-61
2023/07/13 10:46:12;;;;;;;6.90;2.90;;;;;;;24.58;53.52;100493.80;110814;1208;99017;-61
2023/07/13 10:48:39;;;;;;;9.90;3.20;;;;;;;24.58;53.46;100496.40;110812;1212;97951;-60
2023/07/13 10:51:06;;;;;;;7.00;2.90;;;;;;;24.61;53.52;100493.85;110913;1209;139368;-63
2023/07/13 10:53:36;;;;;;;8.40;3.20;;;;;;;24.70;53.36;100494.80;111037;1208;99012;-60
2023/07/13 10:56:08;;;;;;;9.40;3.30;;;;;;;24.80;53.34;100498.81;110768;1212;139409;-61
2023/07/13 10:58:43;;;;;;;7.10;3.30;;;;;;;24.96;53.44;100496.77;110906;1212;99133;-64
2023/07/13 11:01:15;;;;;;;10.20;3.70;;;;;;;25.11;52.95;100493.50;110797;1208;140764;-61
2023/07/13 11:03:43;;;;;;;5.20;2.90;;;;;;;25.22;52.97;100484.12;110864;1208;104307;-61
2023/07/13 11:06:34;;;;;;;6.70;3.80;;;;;;;25.40;52.94;100482.55;110891;1209;99319;-60
2023/07/13 11:09:39;;;;;;;7.50;3.20;;;;;;;25.49;52.53;100483.92;110738;1212;140250;-61
2023/07/13 11:12:17;;;;;;;10.20;4.00;;;;;;;25.52;52.41;100490.93;110874;1212;98959;-61
2023/07/13 11:15:06;;;;;;;7.90;4.00;;;;;;;25.53;52.32;100485.61;110781;1210;138401;-61